sensor_id;sensor_type;location;lat;lon;timestamp;P1;durP1;ratioP1;P2;durP2;ratioP2
21802;SDS011;18591;47.080;22.214;2023-01-28T00:00:19;25.90;;;17.63;;
21802;SDS011;18591;47.080;22.214;2023-01-28T00:02:21;27.70;;;18.93;;
21802;SDS011;18591;47.080;22.214;2023-01-28T00:04:24;27.77;;;18.33;;
21802;SDS011;18591;47.080;22.214;2023-01-28T00:06:27;30.03;;;18.20;;
21802;SDS011;18591;47.080;22.214;2023-01-28T00:08:29;34.13;;;20.33;;
21802;SDS011;18591;47.080;22.214;2023-01-28T00:10:32;34.23;;;20.37;;
21802;SDS011;18591;47.080;22.214;2023-01-28T00:12:35;34.50;;;19.97;;
21802;SDS011;18591;47.080;22.214;2023-01-28T00:14:37;30.63;;;19.23;;
21802;SDS011;18591;47.080;22.214;2023-01-28T00:16:40;37.33;;;23.03;;
21802;SDS011;18591;47.080;22.214;2023-01-28T00:18:42;38.90;;;21.67;;
21802;SDS011;18591;47.080;22.214;2023-01-28T00:20:54;31.53;;;20.03;;
21802;SDS011;18591;47.080;22.214;2023-01-28T00:23:04;31.27;;;20.63;;
21802;SDS011;18591;47.080;22.214;2023-01-28T00:25:07;36.67;;;22.77;;
21802;SDS011;18591;47.080;22.214;2023-01-28T00:27:09;30.03;;;19.63;;
21802;SDS011;18591;47.080;22.214;2023-01-28T00:29:14;33.83;;;22.20;;
21802;SDS011;18591;47.080;22.214;2023-01-28T00:31:18;34.70;;;21.10;;
21802;SDS011;18591;47.080;22.214;2023-01-28T00:33:22;30.23;;;19.40;;
21802;SDS011;18591;47.080;22.214;2023-01-28T00:35:25;27.57;;;18.83;;
21802;SDS011;18591;47.080;22.214;2023-01-28T00:37:28;28.97;;;18.73;;
21802;SDS011;18591;47.080;22.214;2023-01-28T00:39:32;26.53;;;17.47;;
21802;SDS011;18591;47.080;22.214;2023-01-28T00:41:35;29.30;;;19.33;;
21802;SDS011;18591;47.080;22.214;2023-01-28T00:43:38;29.07;;;18.67;;
21802;SDS011;18591;47.080;22.214;2023-01-28T00:45:42;27.10;;;18.00;;
21802;SDS011;18591;47.080;22.214;2023-01-28T00:47:44;28.50;;;18.00;;
21802;SDS011;18591;47.080;22.214;2023-01-28T00:49:49;27.03;;;18.10;;
21802;SDS011;18591;47.080;22.214;2023-01-28T00:51:51;27.30;;;18.80;;
21802;SDS011;18591;47.080;22.214;2023-01-28T00:53:53;26.67;;;18.40;;
21802;SDS011;18591;47.080;22.214;2023-01-28T00:55:56;27.63;;;18.20;;
21802;SDS011;18591;47.080;22.214;2023-01-28T00:57:58;29.27;;;19.50;;
21802;SDS011;18591;47.080;22.214;2023-01-28T01:00:01;28.87;;;19.07;;
21802;SDS011;18591;47.080;22.214;2023-01-28T01:02:07;25.03;;;16.97;;
21802;SDS011;18591;47.080;22.214;2023-01-28T01:04:15;27.60;;;18.70;;
21802;SDS011;18591;47.080;22.214;2023-01-28T01:06:33;27.17;;;18.90;;
21802;SDS011;18591;47.080;22.214;2023-01-28T01:08:37;31.60;;;20.33;;
21802;SDS011;18591;47.080;22.214;2023-01-28T01:10:43;24.60;;;17.50;;
21802;SDS011;18591;47.080;22.214;2023-01-28T01:12:46;25.90;;;18.37;;
21802;SDS011;18591;47.080;22.214;2023-01-28T01:14:49;26.47;;;17.37;;
21802;SDS011;18591;47.080;22.214;2023-01-28T01:16:52;27.50;;;17.30;;
21802;SDS011;18591;47.080;22.214;2023-01-28T01:18:55;27.77;;;17.47;;
21802;SDS011;18591;47.080;22.214;2023-01-28T01:20:57;30.60;;;19.17;;
21802;SDS011;18591;47.080;22.214;2023-01-28T01:23:00;32.37;;;19.53;;
21802;SDS011;18591;47.080;22.214;2023-01-28T01:25:03;30.53;;;19.17;;
21802;SDS011;18591;47.080;22.214;2023-01-28T01:27:06;30.50;;;18.47;;
21802;SDS011;18591;47.080;22.214;2023-01-28T01:29:10;28.73;;;18.17;;
21802;SDS011;18591;47.080;22.214;2023-01-28T01:31:16;30.20;;;18.90;;
21802;SDS011;18591;47.080;22.214;2023-01-28T01:33:20;34.10;;;20.57;;
21802;SDS011;18591;47.080;22.214;2023-01-28T01:35:23;32.20;;;20.17;;
21802;SDS011;18591;47.080;22.214;2023-01-28T01:37:27;32.70;;;20.23;;
21802;SDS011;18591;47.080;22.214;2023-01-28T01:39:29;31.63;;;18.87;;
21802;SDS011;18591;47.080;22.214;2023-01-28T01:41:32;26.97;;;17.33;;
21802;SDS011;18591;47.080;22.214;2023-01-28T01:43:48;28.47;;;17.00;;
21802;SDS011;18591;47.080;22.214;2023-01-28T01:45:56;32.37;;;20.03;;
21802;SDS011;18591;47.080;22.214;2023-01-28T01:48:06;25.67;;;16.87;;
21802;SDS011;18591;47.080;22.214;2023-01-28T01:50:44;29.43;;;17.90;;
21802;SDS011;18591;47.080;22.214;2023-01-28T01:52:51;27.83;;;16.90;;
21802;SDS011;18591;47.080;22.214;2023-01-28T01:54:56;28.10;;;16.67;;
21802;SDS011;18591;47.080;22.214;2023-01-28T01:57:03;22.23;;;14.40;;
21802;SDS011;18591;47.080;22.214;2023-01-28T01:59:13;21.20;;;14.83;;
21802;SDS011;18591;47.080;22.214;2023-01-28T02:01:23;23.07;;;15.57;;
21802;SDS011;18591;47.080;22.214;2023-01-28T02:03:35;25.43;;;17.03;;
21802;SDS011;18591;47.080;22.214;2023-01-28T02:05:44;24.30;;;15.57;;
21802;SDS011;18591;47.080;22.214;2023-01-28T02:07:47;24.13;;;15.37;;
21802;SDS011;18591;47.080;22.214;2023-01-28T02:09:52;24.13;;;15.30;;
21802;SDS011;18591;47.080;22.214;2023-01-28T02:11:56;25.53;;;16.13;;
21802;SDS011;18591;47.080;22.214;2023-01-28T02:14:04;19.83;;;13.17;;
21802;SDS011;18591;47.080;22.214;2023-01-28T02:16:14;24.33;;;15.43;;
21802;SDS011;18591;47.080;22.214;2023-01-28T02:18:18;23.67;;;16.77;;
21802;SDS011;18591;47.080;22.214;2023-01-28T02:20:22;22.03;;;13.60;;
21802;SDS011;18591;47.080;22.214;2023-01-28T02:25:10;24.07;;;15.20;;
21802;SDS011;18591;47.080;22.214;2023-01-28T02:27:36;28.97;;;15.07;;
21802;SDS011;18591;47.080;22.214;2023-01-28T02:30:05;19.17;;;13.23;;
21802;SDS011;18591;47.080;22.214;2023-01-28T02:32:24;22.10;;;14.27;;
21802;SDS011;18591;47.080;22.214;2023-01-28T02:34:41;20.60;;;13.97;;
21802;SDS011;18591;47.080;22.214;2023-01-28T02:39:20;22.93;;;13.47;;
21802;SDS011;18591;47.080;22.214;2023-01-28T02:41:34;20.40;;;14.17;;
21802;SDS011;18591;47.080;22.214;2023-01-28T02:44:00;21.20;;;13.23;;
21802;SDS011;18591;47.080;22.214;2023-01-28T02:46:32;20.53;;;12.93;;
21802;SDS011;18591;47.080;22.214;2023-01-28T02:48:47;24.00;;;15.10;;
21802;SDS011;18591;47.080;22.214;2023-01-28T02:53:19;19.50;;;12.77;;
21802;SDS011;18591;47.080;22.214;2023-01-28T03:00:49;29.13;;;14.73;;
21802;SDS011;18591;47.080;22.214;2023-01-28T03:03:14;24.83;;;14.07;;
21802;SDS011;18591;47.080;22.214;2023-01-28T03:05:28;20.83;;;12.87;;
21802;SDS011;18591;47.080;22.214;2023-01-28T03:07:36;20.97;;;12.93;;
21802;SDS011;18591;47.080;22.214;2023-01-28T03:09:40;34.83;;;16.17;;
21802;SDS011;18591;47.080;22.214;2023-01-28T03:12:00;29.73;;;15.30;;
21802;SDS011;18591;47.080;22.214;2023-01-28T03:14:23;30.17;;;16.20;;
21802;SDS011;18591;47.080;22.214;2023-01-28T03:16:45;26.67;;;16.10;;
21802;SDS011;18591;47.080;22.214;2023-01-28T03:19:06;24.23;;;13.73;;
21802;SDS011;18591;47.080;22.214;2023-01-28T03:21:33;21.33;;;13.47;;
21802;SDS011;18591;47.080;22.214;2023-01-28T03:24:06;23.60;;;13.20;;
21802;SDS011;18591;47.080;22.214;2023-01-28T03:26:37;21.10;;;13.80;;
21802;SDS011;18591;47.080;22.214;2023-01-28T03:29:07;16.00;;;11.17;;
21802;SDS011;18591;47.080;22.214;2023-01-28T03:31:34;19.17;;;12.83;;
21802;SDS011;18591;47.080;22.214;2023-01-28T03:33:57;17.50;;;11.80;;
21802;SDS011;18591;47.080;22.214;2023-01-28T03:36:20;15.37;;;11.23;;
21802;SDS011;18591;47.080;22.214;2023-01-28T03:38:48;16.57;;;11.20;;
21802;SDS011;18591;47.080;22.214;2023-01-28T03:40:55;17.67;;;11.57;;
21802;SDS011;18591;47.080;22.214;2023-01-28T03:43:01;17.17;;;12.00;;
21802;SDS011;18591;47.080;22.214;2023-01-28T03:45:08;21.97;;;13.80;;
21802;SDS011;18591;47.080;22.214;2023-01-28T03:47:11;17.03;;;11.40;;
21802;SDS011;18591;47.080;22.214;2023-01-28T03:49:17;19.97;;;13.00;;
21802;SDS011;18591;47.080;22.214;2023-01-28T03:51:20;16.53;;;11.40;;
21802;SDS011;18591;47.080;22.214;2023-01-28T03:53:22;18.40;;;12.67;;
21802;SDS011;18591;47.080;22.214;2023-01-28T03:55:25;20.10;;;12.83;;
21802;SDS011;18591;47.080;22.214;2023-01-28T03:57:28;19.13;;;12.40;;
21802;SDS011;18591;47.080;22.214;2023-01-28T03:59:32;18.10;;;12.03;;
21802;SDS011;18591;47.080;22.214;2023-01-28T04:01:35;18.03;;;11.67;;
21802;SDS011;18591;47.080;22.214;2023-01-28T04:03:37;17.93;;;12.17;;
21802;SDS011;18591;47.080;22.214;2023-01-28T04:06:07;17.33;;;12.23;;
21802;SDS011;18591;47.080;22.214;2023-01-28T04:08:22;20.63;;;13.57;;
21802;SDS011;18591;47.080;22.214;2023-01-28T04:10:44;21.30;;;13.83;;
21802;SDS011;18591;47.080;22.214;2023-01-28T04:13:06;18.07;;;11.60;;
21802;SDS011;18591;47.080;22.214;2023-01-28T04:15:09;22.40;;;14.60;;
21802;SDS011;18591;47.080;22.214;2023-01-28T04:17:22;69.57;;;39.77;;
21802;SDS011;18591;47.080;22.214;2023-01-28T04:19:25;48.87;;;32.53;;
21802;SDS011;18591;47.080;22.214;2023-01-28T04:21:31;43.23;;;28.60;;
21802;SDS011;18591;47.080;22.214;2023-01-28T04:23:35;31.77;;;21.53;;
21802;SDS011;18591;47.080;22.214;2023-01-28T04:25:37;30.10;;;18.80;;
21802;SDS011;18591;47.080;22.214;2023-01-28T04:27:42;31.80;;;20.47;;
21802;SDS011;18591;47.080;22.214;2023-01-28T04:29:50;33.73;;;22.87;;
21802;SDS011;18591;47.080;22.214;2023-01-28T04:32:11;35.77;;;21.77;;
21802;SDS011;18591;47.080;22.214;2023-01-28T04:34:33;45.77;;;24.67;;
21802;SDS011;18591;47.080;22.214;2023-01-28T04:36:53;55.93;;;29.70;;
21802;SDS011;18591;47.080;22.214;2023-01-28T04:39:34;60.10;;;33.77;;
21802;SDS011;18591;47.080;22.214;2023-01-28T04:41:49;50.27;;;28.93;;
21802;SDS011;18591;47.080;22.214;2023-01-28T04:43:59;45.27;;;27.27;;
21802;SDS011;18591;47.080;22.214;2023-01-28T04:46:23;51.70;;;31.27;;
21802;SDS011;18591;47.080;22.214;2023-01-28T04:48:36;45.83;;;28.87;;
21802;SDS011;18591;47.080;22.214;2023-01-28T04:50:51;42.90;;;27.67;;
21802;SDS011;18591;47.080;22.214;2023-01-28T04:53:07;51.40;;;33.97;;
21802;SDS011;18591;47.080;22.214;2023-01-28T04:55:20;63.60;;;41.67;;
21802;SDS011;18591;47.080;22.214;2023-01-28T04:57:23;52.43;;;35.80;;
21802;SDS011;18591;47.080;22.214;2023-01-28T04:59:26;51.73;;;35.40;;
21802;SDS011;18591;47.080;22.214;2023-01-28T05:01:29;45.53;;;30.40;;
21802;SDS011;18591;47.080;22.214;2023-01-28T05:03:31;64.23;;;37.27;;
21802;SDS011;18591;47.080;22.214;2023-01-28T05:05:38;62.53;;;36.87;;
21802;SDS011;18591;47.080;22.214;2023-01-28T05:07:54;48.87;;;30.53;;
21802;SDS011;18591;47.080;22.214;2023-01-28T05:09:58;44.97;;;26.87;;
21802;SDS011;18591;47.080;22.214;2023-01-28T05:12:00;46.17;;;27.60;;
21802;SDS011;18591;47.080;22.214;2023-01-28T05:14:05;62.93;;;35.37;;
21802;SDS011;18591;47.080;22.214;2023-01-28T05:16:14;61.93;;;34.60;;
21802;SDS011;18591;47.080;22.214;2023-01-28T05:18:20;61.60;;;37.97;;
21802;SDS011;18591;47.080;22.214;2023-01-28T05:20:36;70.80;;;43.30;;
21802;SDS011;18591;47.080;22.214;2023-01-28T05:22:38;66.67;;;43.87;;
21802;SDS011;18591;47.080;22.214;2023-01-28T05:25:07;66.67;;;49.67;;
21802;SDS011;18591;47.080;22.214;2023-01-28T05:27:11;56.87;;;44.17;;
21802;SDS011;18591;47.080;22.214;2023-01-28T05:29:13;56.50;;;41.63;;
21802;SDS011;18591;47.080;22.214;2023-01-28T05:31:16;38.83;;;30.00;;
21802;SDS011;18591;47.080;22.214;2023-01-28T05:33:19;31.80;;;23.03;;
21802;SDS011;18591;47.080;22.214;2023-01-28T05:35:22;40.60;;;26.30;;
21802;SDS011;18591;47.080;22.214;2023-01-28T05:37:24;31.93;;;21.33;;
21802;SDS011;18591;47.080;22.214;2023-01-28T05:39:29;24.80;;;18.10;;
21802;SDS011;18591;47.080;22.214;2023-01-28T05:41:33;24.67;;;18.30;;
21802;SDS011;18591;47.080;22.214;2023-01-28T05:43:36;32.83;;;20.10;;
21802;SDS011;18591;47.080;22.214;2023-01-28T05:45:49;31.53;;;21.30;;
21802;SDS011;18591;47.080;22.214;2023-01-28T05:48:00;30.03;;;20.87;;
21802;SDS011;18591;47.080;22.214;2023-01-28T05:50:16;30.87;;;20.97;;
21802;SDS011;18591;47.080;22.214;2023-01-28T05:52:41;33.37;;;23.87;;
21802;SDS011;18591;47.080;22.214;2023-01-28T05:54:52;33.60;;;23.20;;
21802;SDS011;18591;47.080;22.214;2023-01-28T05:56:59;38.10;;;24.67;;
21802;SDS011;18591;47.080;22.214;2023-01-28T05:59:03;31.83;;;20.60;;
21802;SDS011;18591;47.080;22.214;2023-01-28T06:01:07;30.97;;;18.53;;
21802;SDS011;18591;47.080;22.214;2023-01-28T06:03:19;26.50;;;17.80;;
21802;SDS011;18591;47.080;22.214;2023-01-28T06:05:21;24.20;;;16.40;;
21802;SDS011;18591;47.080;22.214;2023-01-28T06:07:24;25.67;;;16.20;;
21802;SDS011;18591;47.080;22.214;2023-01-28T06:09:26;22.90;;;15.37;;
21802;SDS011;18591;47.080;22.214;2023-01-28T06:11:29;20.77;;;14.00;;
21802;SDS011;18591;47.080;22.214;2023-01-28T06:13:37;20.60;;;13.93;;
21802;SDS011;18591;47.080;22.214;2023-01-28T06:16:00;25.63;;;16.87;;
21802;SDS011;18591;47.080;22.214;2023-01-28T06:18:21;31.70;;;21.37;;
21802;SDS011;18591;47.080;22.214;2023-01-28T06:20:25;29.73;;;19.80;;
21802;SDS011;18591;47.080;22.214;2023-01-28T06:22:29;25.40;;;17.27;;
21802;SDS011;18591;47.080;22.214;2023-01-28T06:24:34;24.63;;;17.30;;
21802;SDS011;18591;47.080;22.214;2023-01-28T06:26:36;20.50;;;14.37;;
21802;SDS011;18591;47.080;22.214;2023-01-28T06:28:40;21.50;;;14.80;;
21802;SDS011;18591;47.080;22.214;2023-01-28T06:30:42;30.23;;;20.67;;
21802;SDS011;18591;47.080;22.214;2023-01-28T06:32:44;25.43;;;17.67;;
21802;SDS011;18591;47.080;22.214;2023-01-28T06:34:46;27.27;;;18.87;;
21802;SDS011;18591;47.080;22.214;2023-01-28T06:36:48;28.10;;;19.03;;
21802;SDS011;18591;47.080;22.214;2023-01-28T06:38:51;33.03;;;20.67;;
21802;SDS011;18591;47.080;22.214;2023-01-28T06:40:53;33.07;;;22.03;;
21802;SDS011;18591;47.080;22.214;2023-01-28T06:42:56;38.60;;;26.27;;
21802;SDS011;18591;47.080;22.214;2023-01-28T06:44:59;36.23;;;23.60;;
21802;SDS011;18591;47.080;22.214;2023-01-28T06:47:01;31.90;;;22.07;;
21802;SDS011;18591;47.080;22.214;2023-01-28T06:49:03;34.47;;;23.20;;
21802;SDS011;18591;47.080;22.214;2023-01-28T06:51:06;30.97;;;19.83;;
21802;SDS011;18591;47.080;22.214;2023-01-28T06:53:08;29.27;;;20.27;;
21802;SDS011;18591;47.080;22.214;2023-01-28T06:55:10;34.80;;;21.73;;
21802;SDS011;18591;47.080;22.214;2023-01-28T06:57:12;31.90;;;20.70;;
21802;SDS011;18591;47.080;22.214;2023-01-28T06:59:14;26.23;;;17.63;;
21802;SDS011;18591;47.080;22.214;2023-01-28T07:01:16;27.70;;;18.30;;
21802;SDS011;18591;47.080;22.214;2023-01-28T07:03:19;42.00;;;26.77;;
21802;SDS011;18591;47.080;22.214;2023-01-28T07:05:22;43.83;;;27.10;;
21802;SDS011;18591;47.080;22.214;2023-01-28T07:07:24;47.00;;;29.63;;
21802;SDS011;18591;47.080;22.214;2023-01-28T07:09:26;43.03;;;26.83;;
21802;SDS011;18591;47.080;22.214;2023-01-28T07:11:28;42.07;;;26.87;;
21802;SDS011;18591;47.080;22.214;2023-01-28T07:13:30;37.10;;;23.47;;
21802;SDS011;18591;47.080;22.214;2023-01-28T07:15:33;38.87;;;24.70;;
21802;SDS011;18591;47.080;22.214;2023-01-28T07:17:38;34.40;;;20.90;;
21802;SDS011;18591;47.080;22.214;2023-01-28T07:19:41;35.43;;;22.00;;
21802;SDS011;18591;47.080;22.214;2023-01-28T07:21:44;40.13;;;24.10;;
21802;SDS011;18591;47.080;22.214;2023-01-28T07:23:49;48.07;;;28.30;;
21802;SDS011;18591;47.080;22.214;2023-01-28T07:25:51;54.20;;;32.37;;
21802;SDS011;18591;47.080;22.214;2023-01-28T07:27:54;59.10;;;35.33;;
21802;SDS011;18591;47.080;22.214;2023-01-28T07:29:56;56.13;;;31.77;;
21802;SDS011;18591;47.080;22.214;2023-01-28T07:31:58;44.07;;;31.97;;
21802;SDS011;18591;47.080;22.214;2023-01-28T07:34:00;35.17;;;25.47;;
21802;SDS011;18591;47.080;22.214;2023-01-28T07:36:02;27.73;;;18.77;;
21802;SDS011;18591;47.080;22.214;2023-01-28T07:38:05;26.07;;;18.50;;
21802;SDS011;18591;47.080;22.214;2023-01-28T07:40:07;30.57;;;20.90;;
21802;SDS011;18591;47.080;22.214;2023-01-28T07:42:10;28.17;;;18.90;;
21802;SDS011;18591;47.080;22.214;2023-01-28T07:44:19;29.13;;;19.13;;
21802;SDS011;18591;47.080;22.214;2023-01-28T07:46:22;26.10;;;16.93;;
21802;SDS011;18591;47.080;22.214;2023-01-28T07:48:24;28.10;;;18.73;;
21802;SDS011;18591;47.080;22.214;2023-01-28T07:50:26;26.00;;;17.40;;
21802;SDS011;18591;47.080;22.214;2023-01-28T07:52:29;32.30;;;20.13;;
21802;SDS011;18591;47.080;22.214;2023-01-28T07:54:32;48.60;;;29.80;;
21802;SDS011;18591;47.080;22.214;2023-01-28T07:56:35;55.37;;;33.43;;
21802;SDS011;18591;47.080;22.214;2023-01-28T07:58:37;60.60;;;35.90;;
21802;SDS011;18591;47.080;22.214;2023-01-28T08:00:39;70.47;;;39.40;;
21802;SDS011;18591;47.080;22.214;2023-01-28T08:02:42;59.23;;;36.43;;
21802;SDS011;18591;47.080;22.214;2023-01-28T08:04:48;52.63;;;31.47;;
21802;SDS011;18591;47.080;22.214;2023-01-28T08:06:50;48.63;;;28.40;;
21802;SDS011;18591;47.080;22.214;2023-01-28T08:08:53;42.50;;;27.77;;
21802;SDS011;18591;47.080;22.214;2023-01-28T08:10:55;33.30;;;21.60;;
21802;SDS011;18591;47.080;22.214;2023-01-28T08:12:57;24.83;;;16.93;;
21802;SDS011;18591;47.080;22.214;2023-01-28T08:14:59;22.67;;;15.33;;
21802;SDS011;18591;47.080;22.214;2023-01-28T08:17:02;23.57;;;15.33;;
21802;SDS011;18591;47.080;22.214;2023-01-28T08:19:04;24.63;;;17.00;;
21802;SDS011;18591;47.080;22.214;2023-01-28T08:21:07;25.37;;;15.67;;
21802;SDS011;18591;47.080;22.214;2023-01-28T08:23:13;25.70;;;15.07;;
21802;SDS011;18591;47.080;22.214;2023-01-28T08:25:18;24.17;;;14.90;;
21802;SDS011;18591;47.080;22.214;2023-01-28T08:27:20;21.37;;;13.70;;
21802;SDS011;18591;47.080;22.214;2023-01-28T08:29:23;26.53;;;18.30;;
21802;SDS011;18591;47.080;22.214;2023-01-28T08:31:26;27.47;;;17.63;;
21802;SDS011;18591;47.080;22.214;2023-01-28T08:33:29;20.90;;;14.07;;
21802;SDS011;18591;47.080;22.214;2023-01-28T08:35:35;22.30;;;13.97;;
21802;SDS011;18591;47.080;22.214;2023-01-28T08:37:37;21.17;;;14.03;;
21802;SDS011;18591;47.080;22.214;2023-01-28T08:39:39;17.97;;;12.80;;
21802;SDS011;18591;47.080;22.214;2023-01-28T08:41:41;23.87;;;15.40;;
21802;SDS011;18591;47.080;22.214;2023-01-28T08:43:43;28.23;;;18.37;;
21802;SDS011;18591;47.080;22.214;2023-01-28T08:45:46;28.00;;;17.07;;
21802;SDS011;18591;47.080;22.214;2023-01-28T08:47:52;31.47;;;18.50;;
21802;SDS011;18591;47.080;22.214;2023-01-28T08:50:01;34.80;;;21.27;;
21802;SDS011;18591;47.080;22.214;2023-01-28T08:52:03;35.77;;;22.13;;
21802;SDS011;18591;47.080;22.214;2023-01-28T08:54:05;46.80;;;28.87;;
21802;SDS011;18591;47.080;22.214;2023-01-28T08:56:08;42.63;;;29.53;;
21802;SDS011;18591;47.080;22.214;2023-01-28T08:58:11;43.27;;;30.70;;
21802;SDS011;18591;47.080;22.214;2023-01-28T09:00:15;40.93;;;30.00;;
21802;SDS011;18591;47.080;22.214;2023-01-28T09:02:17;34.10;;;25.60;;
21802;SDS011;18591;47.080;22.214;2023-01-28T09:04:32;31.27;;;21.03;;
21802;SDS011;18591;47.080;22.214;2023-01-28T09:06:34;26.87;;;19.53;;
21802;SDS011;18591;47.080;22.214;2023-01-28T09:08:36;26.37;;;18.87;;
21802;SDS011;18591;47.080;22.214;2023-01-28T09:10:39;28.87;;;20.00;;
21802;SDS011;18591;47.080;22.214;2023-01-28T09:12:45;28.23;;;19.70;;
21802;SDS011;18591;47.080;22.214;2023-01-28T09:14:48;29.63;;;20.23;;
21802;SDS011;18591;47.080;22.214;2023-01-28T09:16:51;33.53;;;23.63;;
21802;SDS011;18591;47.080;22.214;2023-01-28T09:18:53;36.50;;;23.80;;
21802;SDS011;18591;47.080;22.214;2023-01-28T09:20:55;40.23;;;25.73;;
21802;SDS011;18591;47.080;22.214;2023-01-28T09:22:58;38.50;;;26.03;;
21802;SDS011;18591;47.080;22.214;2023-01-28T09:25:01;44.53;;;28.77;;
21802;SDS011;18591;47.080;22.214;2023-01-28T09:27:03;42.50;;;27.83;;
21802;SDS011;18591;47.080;22.214;2023-01-28T09:29:05;63.73;;;43.23;;
21802;SDS011;18591;47.080;22.214;2023-01-28T09:31:09;57.67;;;38.93;;
21802;SDS011;18591;47.080;22.214;2023-01-28T09:33:13;47.23;;;32.10;;
21802;SDS011;18591;47.080;22.214;2023-01-28T09:35:15;37.20;;;26.07;;
21802;SDS011;18591;47.080;22.214;2023-01-28T09:37:18;40.90;;;26.93;;
21802;SDS011;18591;47.080;22.214;2023-01-28T09:39:20;47.57;;;33.03;;
21802;SDS011;18591;47.080;22.214;2023-01-28T09:43:53;47.00;;;35.33;;
21802;SDS011;18591;47.080;22.214;2023-01-28T09:46:03;42.47;;;29.17;;
21802;SDS011;18591;47.080;22.214;2023-01-28T09:48:12;37.43;;;27.83;;
21802;SDS011;18591;47.080;22.214;2023-01-28T09:50:38;34.20;;;24.47;;
21802;SDS011;18591;47.080;22.214;2023-01-28T09:52:41;33.40;;;23.03;;
21802;SDS011;18591;47.080;22.214;2023-01-28T09:54:48;33.77;;;21.37;;
21802;SDS011;18591;47.080;22.214;2023-01-28T09:57:01;31.63;;;20.60;;
21802;SDS011;18591;47.080;22.214;2023-01-28T09:59:14;35.10;;;23.10;;
21802;SDS011;18591;47.080;22.214;2023-01-28T10:05:55;44.03;;;26.60;;
21802;SDS011;18591;47.080;22.214;2023-01-28T10:10:34;41.73;;;23.70;;
21802;SDS011;18591;47.080;22.214;2023-01-28T10:15:26;35.80;;;21.30;;
21802;SDS011;18591;47.080;22.214;2023-01-28T10:17:41;38.40;;;23.77;;
21802;SDS011;18591;47.080;22.214;2023-01-28T10:19:47;30.63;;;21.43;;
21802;SDS011;18591;47.080;22.214;2023-01-28T10:22:04;33.20;;;22.70;;
21802;SDS011;18591;47.080;22.214;2023-01-28T10:24:16;32.23;;;22.10;;
21802;SDS011;18591;47.080;22.214;2023-01-28T10:26:31;31.27;;;22.20;;
21802;SDS011;18591;47.080;22.214;2023-01-28T10:28:36;27.20;;;20.00;;
21802;SDS011;18591;47.080;22.214;2023-01-28T10:30:38;27.67;;;18.73;;
21802;SDS011;18591;47.080;22.214;2023-01-28T10:33:28;29.90;;;18.97;;
21802;SDS011;18591;47.080;22.214;2023-01-28T10:35:23;28.23;;;17.40;;
21802;SDS011;18591;47.080;22.214;2023-01-28T10:37:26;31.33;;;20.53;;
21802;SDS011;18591;47.080;22.214;2023-01-28T10:39:30;33.07;;;21.60;;
21802;SDS011;18591;47.080;22.214;2023-01-28T10:41:32;39.87;;;20.93;;
21802;SDS011;18591;47.080;22.214;2023-01-28T10:43:36;48.63;;;23.60;;
21802;SDS011;18591;47.080;22.214;2023-01-28T10:46:02;58.70;;;24.67;;
21802;SDS011;18591;47.080;22.214;2023-01-28T10:48:25;101.23;;;38.50;;
21802;SDS011;18591;47.080;22.214;2023-01-28T10:50:52;82.53;;;34.73;;
21802;SDS011;18591;47.080;22.214;2023-01-28T10:53:01;73.10;;;30.17;;
21802;SDS011;18591;47.080;22.214;2023-01-28T10:55:05;93.47;;;39.43;;
21802;SDS011;18591;47.080;22.214;2023-01-28T10:57:09;119.70;;;47.93;;
21802;SDS011;18591;47.080;22.214;2023-01-28T10:59:48;99.10;;;40.50;;
21802;SDS011;18591;47.080;22.214;2023-01-28T11:03:53;98.30;;;37.07;;
21802;SDS011;18591;47.080;22.214;2023-01-28T11:05:57;86.17;;;30.33;;
21802;SDS011;18591;47.080;22.214;2023-01-28T11:08:12;70.83;;;28.90;;
21802;SDS011;18591;47.080;22.214;2023-01-28T11:12:30;67.67;;;27.03;;
21802;SDS011;18591;47.080;22.214;2023-01-28T11:14:32;101.60;;;38.80;;
21802;SDS011;18591;47.080;22.214;2023-01-28T11:16:34;105.00;;;37.30;;
21802;SDS011;18591;47.080;22.214;2023-01-28T11:21:06;75.13;;;34.10;;
21802;SDS011;18591;47.080;22.214;2023-01-28T11:23:45;68.93;;;31.10;;
21802;SDS011;18591;47.080;22.214;2023-01-28T11:25:57;76.43;;;31.00;;
21802;SDS011;18591;47.080;22.214;2023-01-28T11:28:16;85.03;;;33.47;;
21802;SDS011;18591;47.080;22.214;2023-01-28T11:30:28;84.50;;;34.97;;
21802;SDS011;18591;47.080;22.214;2023-01-28T11:32:41;67.23;;;29.67;;
21802;SDS011;18591;47.080;22.214;2023-01-28T11:34:48;71.80;;;32.63;;
21802;SDS011;18591;47.080;22.214;2023-01-28T11:37:02;55.90;;;24.90;;
21802;SDS011;18591;47.080;22.214;2023-01-28T11:39:23;42.47;;;22.70;;
21802;SDS011;18591;47.080;22.214;2023-01-28T11:41:30;46.33;;;25.40;;
21802;SDS011;18591;47.080;22.214;2023-01-28T11:43:34;54.80;;;26.47;;
21802;SDS011;18591;47.080;22.214;2023-01-28T11:45:42;58.70;;;27.93;;
21802;SDS011;18591;47.080;22.214;2023-01-28T11:48:01;48.07;;;24.70;;
21802;SDS011;18591;47.080;22.214;2023-01-28T11:52:39;48.57;;;24.87;;
21802;SDS011;18591;47.080;22.214;2023-01-28T11:55:16;55.57;;;25.80;;
21802;SDS011;18591;47.080;22.214;2023-01-28T11:57:33;57.23;;;25.03;;
21802;SDS011;18591;47.080;22.214;2023-01-28T11:59:53;71.33;;;33.30;;
21802;SDS011;18591;47.080;22.214;2023-01-28T12:11:46;71.07;;;30.60;;
21802;SDS011;18591;47.080;22.214;2023-01-28T12:16:45;58.73;;;34.70;;
21802;SDS011;18591;47.080;22.214;2023-01-28T12:19:39;40.67;;;24.63;;
21802;SDS011;18591;47.080;22.214;2023-01-28T12:32:17;58.03;;;26.43;;
21802;SDS011;18591;47.080;22.214;2023-01-28T12:44:13;44.90;;;24.33;;
21802;SDS011;18591;47.080;22.214;2023-01-28T12:49:39;36.57;;;20.97;;
21802;SDS011;18591;47.080;22.214;2023-01-28T12:51:23;38.60;;;21.10;;
21802;SDS011;18591;47.080;22.214;2023-01-28T12:55:46;46.10;;;22.37;;
21802;SDS011;18591;47.080;22.214;2023-01-28T12:57:51;57.83;;;26.40;;
21802;SDS011;18591;47.080;22.214;2023-01-28T13:00:02;57.13;;;24.27;;
21802;SDS011;18591;47.080;22.214;2023-01-28T13:02:22;54.30;;;25.00;;
21802;SDS011;18591;47.080;22.214;2023-01-28T13:09:19;65.07;;;29.27;;
21802;SDS011;18591;47.080;22.214;2023-01-28T13:11:24;57.07;;;28.53;;
21802;SDS011;18591;47.080;22.214;2023-01-28T13:13:36;44.20;;;23.13;;
21802;SDS011;18591;47.080;22.214;2023-01-28T13:15:40;37.77;;;20.23;;
21802;SDS011;18591;47.080;22.214;2023-01-28T13:17:58;40.07;;;20.43;;
21802;SDS011;18591;47.080;22.214;2023-01-28T13:20:01;42.47;;;20.17;;
21802;SDS011;18591;47.080;22.214;2023-01-28T13:24:32;41.47;;;21.17;;
21802;SDS011;18591;47.080;22.214;2023-01-28T13:28:45;31.03;;;18.53;;
21802;SDS011;18591;47.080;22.214;2023-01-28T13:30:50;35.10;;;20.10;;
21802;SDS011;18591;47.080;22.214;2023-01-28T13:33:03;37.63;;;20.40;;
21802;SDS011;18591;47.080;22.214;2023-01-28T13:37:57;31.53;;;19.07;;
21802;SDS011;18591;47.080;22.214;2023-01-28T13:42:25;30.10;;;18.67;;
21802;SDS011;18591;47.080;22.214;2023-01-28T13:44:31;32.00;;;20.40;;